Nearby METAR Reports

 

YBBN - Brisbane Intl Ar, Australia
Distance from station: SE 28km
Updated: 19 September 2021 12:00
Clear
Clear
 Wind from E
Wind: E 13 km/h
Temperature: 25°C
Dew Point: 13°C
Humidity: 47%
Barometer: 1021 hPa
Summary: Clear
Visibility: greater than 10 km
2021/09/19 02:00 YBBN 190200Z 08007KT CAVOK 25/13 Q1021
YAMB - Amberley, Australia
Distance from station: SSW 55km
Updated: 19 September 2021 12:00
Clear
Clear
 Wind from ENE
Wind: ENE 13 km/h
Temperature: 28°C
Dew Point: 11°C
Humidity: 35%
Barometer: 1020 hPa
Clouds: Clear
Visibility: 10 km
2021/09/19 02:00 YAMB 190200Z AUTO 06007KT 9999 // NCD 28/11 Q1020